createdAt,value
2022-11-18T00:00:38.375Z,9.00
2022-11-18T00:03:06.982Z,9.10
2022-11-18T00:05:35.112Z,9.10
2022-11-18T00:08:03.823Z,9.10
2022-11-18T00:10:36.558Z,9.10
2022-11-18T00:13:21.922Z,9.10
2022-11-18T00:15:51.421Z,9.10
2022-11-18T00:18:22.614Z,9.10
2022-11-18T00:20:50.959Z,9.10
2022-11-18T00:23:19.291Z,9.00
2022-11-18T00:25:50.174Z,9.00
2022-11-18T00:28:19.233Z,9.00
2022-11-18T00:30:50.918Z,8.90
2022-11-18T00:33:22.978Z,9.00
2022-11-18T00:35:55.056Z,8.90
2022-11-18T00:38:23.471Z,8.90
2022-11-18T00:40:59.625Z,8.90
2022-11-18T00:43:26.684Z,8.90
2022-11-18T00:45:54.803Z,8.90
2022-11-18T00:48:24.832Z,8.90
2022-11-18T00:50:55.945Z,8.90
2022-11-18T00:53:26.105Z,9.00
2022-11-18T00:55:56.291Z,8.90
2022-11-18T00:58:27.148Z,8.90
2022-11-18T01:00:55.661Z,8.90
2022-11-18T01:03:25.639Z,8.90
2022-11-18T01:05:53.645Z,8.80
2022-11-18T01:08:24.650Z,8.80
2022-11-18T01:10:53.627Z,8.80
2022-11-18T01:13:23.782Z,8.70
2022-11-18T01:15:54.988Z,8.60
2022-11-18T01:18:27.039Z,8.60
2022-11-18T01:20:55.302Z,8.70
2022-11-18T01:23:23.559Z,8.60
2022-11-18T01:25:51.840Z,8.60
2022-11-18T01:28:23.808Z,8.50
2022-11-18T01:30:52.859Z,8.40
2022-11-18T01:33:23.204Z,8.40
2022-11-18T01:35:52.782Z,8.40
2022-11-18T01:38:20.988Z,8.30
2022-11-18T01:40:49.279Z,8.30
2022-11-18T01:43:19.105Z,8.30
2022-11-18T01:45:49.186Z,8.20
2022-11-18T01:48:22.229Z,8.30
2022-11-18T01:50:55.489Z,8.30
2022-11-18T01:53:26.823Z,8.40
2022-11-18T01:55:58.767Z,8.40
2022-11-18T01:58:31.051Z,8.50
2022-11-18T02:01:00.105Z,8.50
2022-11-18T02:03:29.043Z,8.50
2022-11-18T02:06:00.637Z,8.50
2022-11-18T02:08:30.547Z,8.60
2022-11-18T02:10:58.751Z,8.60
2022-11-18T02:13:27.062Z,9.50
2022-11-18T02:16:01.872Z,10.20
2022-11-18T02:18:39.620Z,8.60
2022-11-18T02:21:22.836Z,8.60
2022-11-18T02:24:22.155Z,8.60
2022-11-18T02:27:36.762Z,8.50
2022-11-18T02:30:09.257Z,8.40
2022-11-18T02:32:43.180Z,8.30
2022-11-18T02:35:17.081Z,9.00
2022-11-18T02:37:49.025Z,8.70
2022-11-18T02:40:23.078Z,8.90
2022-11-18T02:42:56.014Z,8.20
2022-11-18T02:45:28.624Z,8.20
2022-11-18T02:47:58.570Z,9.30
2022-11-18T02:50:29.997Z,8.80
2022-11-18T02:53:01.764Z,8.20
2022-11-18T02:55:31.934Z,8.10
2022-11-18T02:58:01.240Z,8.00
2022-11-18T03:00:31.329Z,8.00
2022-11-18T03:02:59.307Z,7.90
2022-11-18T03:05:33.752Z,8.00
2022-11-18T03:08:08.331Z,7.90
2022-11-18T03:10:45.344Z,8.00
2022-11-18T03:13:21.878Z,8.00
2022-11-18T03:15:57.456Z,8.80
2022-11-18T03:18:34.094Z,8.10
2022-11-18T03:21:09.462Z,8.10
2022-11-18T03:23:42.296Z,8.10
2022-11-18T03:26:14.967Z,8.50
2022-11-18T03:28:49.840Z,8.00
2022-11-18T03:31:22.910Z,8.00
2022-11-18T03:33:54.355Z,8.40
2022-11-18T03:36:25.278Z,8.10
2022-11-18T03:38:58.882Z,8.30
2022-11-18T03:41:29.264Z,8.10
2022-11-18T03:44:02.992Z,8.80
2022-11-18T03:46:40.239Z,8.20
2022-11-18T03:49:12.023Z,8.20
2022-11-18T03:51:43.829Z,8.30
2022-11-18T03:54:15.615Z,8.80
2022-11-18T03:56:48.668Z,8.80
2022-11-18T03:59:20.811Z,8.50
2022-11-18T04:01:54.479Z,8.00
2022-11-18T04:04:22.864Z,8.80
2022-11-18T04:06:55.788Z,8.60
2022-11-18T04:09:30.927Z,9.10
2022-11-18T04:12:03.655Z,8.60
2022-11-18T04:14:33.595Z,8.90
2022-11-18T04:17:08.823Z,8.60
2022-11-18T04:19:37.183Z,9.00
2022-11-18T04:22:05.538Z,9.20
2022-11-18T04:24:33.769Z,8.60
2022-11-18T04:27:02.676Z,9.30
2022-11-18T04:29:31.375Z,9.30
2022-11-18T04:31:59.860Z,8.30
2022-11-18T04:34:30.813Z,8.30
2022-11-18T04:36:59.217Z,8.50
2022-11-18T04:39:27.436Z,8.30
2022-11-18T04:41:58.287Z,8.80
2022-11-18T04:44:28.353Z,9.20
2022-11-18T04:46:57.448Z,8.40
2022-11-18T04:49:30.888Z,8.80
2022-11-18T04:51:59.323Z,8.30
2022-11-18T04:54:28.321Z,8.90
2022-11-18T04:56:57.079Z,8.30
2022-11-18T04:59:26.865Z,9.70
2022-11-18T05:01:55.810Z,8.90
2022-11-18T05:04:25.844Z,8.20
2022-11-18T05:06:55.795Z,8.20
2022-11-18T05:09:28.814Z,8.30
2022-11-18T05:12:17.600Z,9.20
2022-11-18T05:14:50.142Z,8.10
2022-11-18T05:17:20.321Z,8.50
2022-11-18T05:19:48.487Z,8.10
2022-11-18T05:22:18.242Z,8.10
2022-11-18T05:24:46.518Z,8.50
2022-11-18T05:27:17.644Z,8.30
2022-11-18T05:29:45.902Z,8.40
2022-11-18T05:32:15.889Z,8.20
2022-11-18T05:34:45.410Z,8.20
2022-11-18T05:37:13.732Z,7.40
2022-11-18T05:39:44.008Z,8.20
2022-11-18T05:42:29.811Z,8.20
2022-11-18T05:44:58.923Z,8.20
2022-11-18T05:47:53.754Z,8.60
2022-11-18T05:50:22.600Z,9.00
2022-11-18T05:52:54.190Z,8.20
2022-11-18T05:55:27.891Z,8.20
2022-11-18T05:58:02.610Z,8.20
2022-11-18T06:00:32.369Z,8.20
2022-11-18T06:03:02.137Z,8.90
2022-11-18T06:05:30.640Z,9.60
2022-11-18T06:08:04.513Z,8.30
2022-11-18T06:10:44.048Z,9.10
2022-11-18T06:13:21.245Z,8.40
2022-11-18T06:15:52.302Z,8.40
2022-11-18T06:18:26.830Z,8.60
2022-11-18T06:21:00.139Z,8.90
2022-11-18T06:23:30.772Z,8.50
2022-11-18T06:26:01.537Z,8.50
2022-11-18T06:28:37.538Z,8.50
2022-11-18T06:31:06.401Z,9.20
2022-11-18T06:33:36.563Z,7.10
2022-11-18T06:36:09.759Z,8.90
2022-11-18T06:39:01.871Z,8.50
2022-11-18T06:41:32.048Z,8.50
2022-11-18T06:44:02.126Z,8.50
2022-11-18T06:46:48.328Z,9.40
2022-11-18T06:49:17.011Z,9.10
2022-11-18T06:51:45.739Z,9.10
2022-11-18T06:54:14.387Z,8.60
2022-11-18T06:56:44.494Z,6.80
2022-11-18T06:59:12.693Z,8.50
2022-11-18T07:01:42.403Z,8.60
2022-11-18T07:04:10.862Z,8.60
2022-11-18T07:06:41.235Z,8.60
2022-11-18T07:09:09.696Z,8.50
2022-11-18T07:11:43.248Z,9.20
2022-11-18T07:14:15.656Z,9.90
2022-11-18T07:16:43.793Z,8.90
2022-11-18T07:19:13.726Z,8.70
2022-11-18T07:21:43.565Z,9.00
2022-11-18T07:24:15.312Z,8.70
2022-11-18T07:26:44.609Z,8.70
2022-11-18T07:29:15.134Z,8.10
2022-11-18T07:31:50.582Z,9.40
2022-11-18T07:34:37.369Z,8.70
2022-11-18T07:37:06.779Z,8.80
2022-11-18T07:39:46.124Z,8.80
2022-11-18T07:42:18.072Z,8.80
2022-11-18T07:44:54.247Z,8.80
2022-11-18T07:47:26.918Z,8.50
2022-11-18T07:50:02.280Z,9.50
2022-11-18T07:52:38.555Z,8.70
2022-11-18T07:55:10.361Z,8.50
2022-11-18T07:57:38.439Z,8.80
2022-11-18T08:00:11.492Z,8.80
2022-11-18T08:02:39.831Z,8.80
2022-11-18T08:05:16.482Z,8.80
2022-11-18T08:07:46.401Z,8.80
2022-11-18T08:10:15.136Z,10.00
2022-11-18T08:12:46.054Z,8.90
2022-11-18T08:15:17.301Z,9.30
2022-11-18T08:17:46.414Z,8.90
2022-11-18T08:20:17.616Z,8.40
2022-11-18T08:22:46.021Z,8.90
2022-11-18T08:25:14.689Z,9.50
2022-11-18T08:27:43.465Z,9.60
2022-11-18T08:30:15.050Z,10.30
2022-11-18T08:32:45.776Z,8.90
2022-11-18T08:35:14.582Z,8.70
2022-11-18T08:37:43.486Z,9.00
2022-11-18T08:40:15.359Z,9.50
2022-11-18T08:42:45.114Z,9.10
2022-11-18T08:45:13.412Z,9.10
2022-11-18T08:47:41.552Z,9.40
2022-11-18T08:50:12.851Z,9.10
2022-11-18T08:52:41.295Z,9.20
2022-11-18T08:55:10.054Z,9.10
2022-11-18T08:57:39.586Z,9.10
2022-11-18T09:00:08.774Z,10.70
2022-11-18T09:02:37.288Z,9.10
2022-11-18T09:05:06.094Z,9.20
2022-11-18T09:07:36.641Z,9.10
2022-11-18T09:10:05.180Z,8.70
2022-11-18T09:12:33.724Z,9.20
2022-11-18T09:15:17.850Z,9.30
2022-11-18T09:17:47.998Z,9.50
2022-11-18T09:20:16.504Z,9.30
2022-11-18T09:22:46.191Z,9.90
2022-11-18T09:25:19.569Z,9.40
2022-11-18T09:27:50.611Z,9.30
2022-11-18T09:30:20.164Z,9.40
2022-11-18T09:32:50.485Z,9.30
2022-11-18T09:35:18.558Z,9.30
2022-11-18T09:37:48.503Z,9.30
2022-11-18T09:40:19.406Z,9.30
2022-11-18T09:42:58.807Z,9.30
2022-11-18T09:45:31.879Z,9.20
2022-11-18T09:48:01.824Z,9.20
2022-11-18T09:53:22.727Z,10.00
2022-11-18T09:55:53.866Z,10.20
2022-11-18T09:58:28.538Z,9.10
2022-11-18T10:00:56.604Z,9.20
2022-11-18T10:03:28.682Z,9.20
2022-11-18T10:06:02.926Z,9.20
2022-11-18T10:08:38.442Z,9.10
2022-11-18T10:11:15.524Z,9.10
2022-11-18T10:13:57.834Z,9.20
2022-11-18T10:16:43.757Z,9.20
2022-11-18T10:19:24.436Z,9.20
2022-11-18T10:22:11.747Z,9.40
2022-11-18T10:24:50.439Z,9.40
2022-11-18T10:27:19.745Z,9.80
2022-11-18T10:29:54.101Z,9.20
2022-11-18T10:32:22.581Z,9.20
2022-11-18T10:34:53.399Z,9.30
2022-11-18T10:38:00.290Z,9.20
2022-11-18T10:40:29.279Z,9.20
2022-11-18T10:42:57.884Z,9.30
2022-11-18T10:45:28.943Z,10.30
2022-11-18T10:48:02.317Z,9.20
2022-11-18T10:50:33.325Z,9.20
2022-11-18T10:53:02.605Z,9.20
2022-11-18T10:55:34.879Z,9.20
2022-11-18T10:58:10.498Z,9.30
2022-11-18T11:00:46.712Z,9.70
2022-11-18T11:03:37.132Z,9.30
2022-11-18T11:10:14.521Z,9.30
2022-11-18T11:40:52.895Z,9.40
2022-11-18T11:43:38.227Z,9.50
2022-11-18T11:46:28.729Z,9.40
2022-11-18T11:49:08.289Z,9.50
2022-11-18T11:51:45.409Z,9.50
2022-11-18T11:54:46.849Z,9.50
2022-11-18T11:57:38.989Z,9.50
2022-11-18T12:00:22.339Z,9.60
2022-11-18T12:03:06.973Z,9.60
2022-11-18T12:05:39.428Z,9.70
2022-11-18T12:08:14.078Z,9.70
2022-11-18T12:10:53.001Z,9.70
2022-11-18T12:13:42.166Z,9.80
2022-11-18T12:16:29.767Z,9.90
2022-11-18T12:19:05.730Z,9.90
2022-11-18T12:22:04.266Z,10.00
2022-11-18T12:24:39.657Z,10.00
2022-11-18T12:32:27.750Z,10.10
2022-11-18T12:35:36.216Z,10.00
2022-11-18T12:38:52.297Z,10.10
2022-11-18T13:51:05.152Z,10.00
2022-11-18T13:53:35.483Z,10.00
2022-11-18T13:56:06.161Z,10.00
2022-11-18T14:05:34.012Z,10.00
2022-11-18T14:08:07.260Z,10.00
2022-11-18T14:13:28.461Z,10.10
2022-11-18T14:16:54.992Z,10.00
2022-11-18T14:19:31.553Z,10.00
2022-11-18T14:22:10.037Z,10.00
2022-11-18T14:24:43.091Z,10.10
2022-11-18T14:27:38.259Z,10.00
2022-11-18T14:30:29.575Z,10.00
2022-11-18T14:33:27.965Z,9.90
2022-11-18T14:35:59.305Z,9.90
2022-11-18T14:41:53.713Z,9.90
2022-11-18T14:44:24.366Z,9.80
2022-11-18T14:46:55.274Z,9.80
2022-11-18T14:49:24.964Z,9.90
2022-11-18T14:51:56.717Z,9.90
2022-11-18T14:54:27.682Z,9.90
2022-11-18T14:57:01.161Z,9.80
2022-11-18T14:59:29.706Z,9.80
2022-11-18T15:01:58.727Z,9.80
2022-11-18T15:04:27.125Z,9.80
2022-11-18T15:06:55.364Z,9.80
2022-11-18T15:09:25.785Z,9.80
2022-11-18T15:12:05.362Z,9.80
2022-11-18T15:14:55.527Z,9.80
2022-11-18T15:17:23.801Z,9.70
2022-11-18T15:19:51.958Z,9.70
2022-11-18T15:22:20.057Z,9.70
2022-11-18T15:24:48.030Z,9.70
2022-11-18T15:27:16.055Z,9.60
2022-11-18T15:29:45.983Z,9.60
2022-11-18T15:32:14.079Z,9.60
2022-11-18T15:34:42.341Z,9.60
2022-11-18T15:37:13.066Z,9.60
2022-11-18T15:39:41.218Z,9.60
2022-11-18T15:42:09.312Z,9.60
2022-11-18T15:44:37.438Z,9.60
2022-11-18T15:47:07.080Z,9.60
2022-11-18T15:49:35.114Z,9.60
2022-11-18T15:52:03.233Z,9.60
2022-11-18T15:54:31.385Z,9.50
2022-11-18T15:56:59.436Z,9.60
2022-11-18T15:59:29.681Z,9.60
2022-11-18T16:01:58.231Z,9.60
2022-11-18T16:04:27.815Z,9.60
2022-11-18T16:06:56.967Z,9.50
2022-11-18T16:09:25.266Z,9.50
2022-11-18T16:12:11.066Z,9.50
2022-11-18T16:14:39.828Z,9.50
2022-11-18T16:17:13.937Z,9.50
2022-11-18T16:19:43.423Z,9.40
2022-11-18T16:22:11.460Z,9.50
2022-11-18T16:24:41.870Z,9.50
2022-11-18T16:27:13.650Z,9.40
2022-11-18T16:29:44.902Z,9.40
2022-11-18T16:32:13.702Z,9.50
2022-11-18T16:34:44.307Z,9.50
2022-11-18T16:37:12.592Z,9.50
2022-11-18T16:39:40.708Z,9.50
2022-11-18T16:42:11.840Z,9.40
2022-11-18T16:44:40.036Z,9.50
2022-11-18T16:47:14.126Z,9.50
2022-11-18T16:49:44.386Z,9.40
2022-11-18T16:52:14.788Z,9.50
2022-11-18T16:54:45.552Z,9.40
2022-11-18T16:57:14.270Z,9.40
2022-11-18T16:59:42.356Z,9.50
2022-11-18T17:02:13.464Z,9.40
2022-11-18T17:04:43.300Z,9.50
2022-11-18T17:07:11.388Z,9.50
2022-11-18T17:09:39.736Z,9.50
2022-11-18T17:12:08.700Z,9.40
2022-11-18T17:14:38.303Z,9.40
2022-11-18T17:17:06.421Z,9.40
2022-11-18T17:19:35.086Z,9.40
2022-11-18T17:22:04.489Z,9.40
2022-11-18T17:24:32.762Z,9.50
2022-11-18T17:27:00.908Z,9.50
2022-11-18T17:29:28.924Z,9.50
2022-11-18T17:31:56.859Z,9.40
2022-11-18T17:34:25.050Z,9.60
2022-11-18T17:37:17.715Z,9.50
2022-11-18T17:39:48.247Z,9.50
2022-11-18T17:42:15.333Z,9.50
2022-11-18T17:44:43.275Z,9.50
2022-11-18T17:47:11.285Z,9.50
2022-11-18T17:49:39.248Z,9.50
2022-11-18T17:52:07.352Z,9.40
2022-11-18T17:54:36.852Z,9.40
2022-11-18T17:57:04.925Z,9.30
2022-11-18T17:59:32.968Z,9.30
2022-11-18T18:02:01.400Z,9.40
2022-11-18T18:04:29.762Z,9.30
2022-11-18T18:06:57.884Z,9.30
2022-11-18T18:09:30.635Z,9.30
2022-11-18T18:12:21.449Z,9.30
2022-11-18T18:14:48.524Z,9.30
2022-11-18T18:17:17.164Z,9.90
2022-11-18T18:19:45.409Z,9.20
2022-11-18T18:22:13.594Z,9.60
2022-11-18T18:24:41.616Z,9.20
2022-11-18T18:27:10.976Z,9.30
2022-11-18T18:29:39.365Z,9.30
2022-11-18T18:32:07.482Z,9.30
2022-11-18T18:34:35.980Z,9.30
2022-11-18T18:37:04.044Z,9.30
2022-11-18T18:39:32.202Z,9.70
2022-11-18T18:42:00.516Z,9.30
2022-11-18T18:44:50.393Z,9.80
2022-11-18T18:47:17.726Z,10.30
2022-11-18T18:49:45.735Z,9.10
2022-11-18T18:52:13.815Z,9.10
2022-11-18T18:54:41.871Z,9.00
2022-11-18T18:57:09.952Z,9.20
2022-11-18T18:59:39.495Z,8.90
2022-11-18T19:02:07.900Z,9.40
2022-11-18T19:04:35.982Z,8.80
2022-11-18T19:07:04.058Z,8.80
2022-11-18T19:09:36.157Z,8.80
2022-11-18T19:12:22.703Z,9.40
2022-11-18T19:14:52.312Z,8.70
2022-11-18T19:17:20.851Z,8.80
2022-11-18T19:20:07.134Z,8.70
2022-11-18T19:22:35.337Z,8.70
2022-11-18T19:25:03.471Z,8.70
2022-11-18T19:27:31.564Z,8.80
2022-11-18T19:30:02.177Z,9.00
2022-11-18T19:32:30.445Z,8.80
2022-11-18T19:34:58.613Z,7.70
2022-11-18T19:37:27.120Z,8.90
2022-11-18T19:39:55.354Z,9.00
2022-11-18T19:42:23.512Z,9.50
2022-11-18T19:44:51.930Z,9.10
2022-11-18T19:47:21.659Z,9.10
2022-11-18T19:49:50.177Z,9.00
2022-11-18T19:52:18.528Z,9.10
2022-11-18T19:54:46.924Z,9.00
2022-11-18T19:57:15.062Z,9.00
2022-11-18T19:59:45.015Z,9.00
2022-11-18T20:02:16.572Z,9.80
2022-11-18T20:05:07.340Z,9.30
2022-11-18T20:07:36.064Z,9.50
2022-11-18T20:10:07.044Z,9.00
2022-11-18T20:12:35.648Z,9.60
2022-11-18T20:15:04.943Z,8.90
2022-11-18T20:17:33.957Z,10.00
2022-11-18T20:20:03.984Z,8.90
2022-11-18T20:22:33.587Z,9.20
2022-11-18T20:25:01.984Z,8.90
2022-11-18T20:27:30.830Z,8.90
2022-11-18T20:30:03.844Z,7.90
2022-11-18T20:32:32.320Z,8.80
2022-11-18T20:35:02.291Z,8.70
2022-11-18T20:37:32.464Z,8.70
2022-11-18T20:40:01.112Z,8.60
2022-11-18T20:42:48.582Z,8.60
2022-11-18T20:45:18.249Z,8.60
2022-11-18T20:47:50.543Z,8.50
2022-11-18T20:50:20.970Z,8.50
2022-11-18T20:52:51.064Z,8.50
2022-11-18T20:55:25.719Z,9.40
2022-11-18T20:57:54.119Z,8.10
2022-11-18T21:00:26.354Z,8.40
2022-11-18T21:03:04.639Z,8.40
2022-11-18T21:05:33.309Z,8.90
2022-11-18T21:08:04.311Z,9.00
2022-11-18T21:10:34.191Z,8.20
2022-11-18T21:13:21.848Z,8.20
2022-11-18T21:15:59.492Z,8.10
2022-11-18T21:18:31.570Z,8.00
2022-11-18T21:21:17.467Z,7.90
2022-11-18T21:24:06.974Z,7.70
2022-11-18T21:26:54.276Z,7.50
2022-11-18T21:29:24.498Z,7.50
2022-11-18T21:31:55.703Z,7.60
2022-11-18T21:34:25.155Z,7.20
2022-11-18T21:36:55.430Z,7.10
2022-11-18T21:39:27.894Z,7.00
2022-11-18T21:41:57.646Z,5.20
2022-11-18T21:44:29.111Z,6.80
2022-11-18T21:47:00.704Z,6.90
2022-11-18T21:49:32.743Z,6.50
2022-11-18T21:52:01.991Z,7.70
2022-11-18T21:54:35.385Z,6.50
2022-11-18T21:57:11.032Z,6.60
2022-11-18T21:59:40.536Z,6.80
2022-11-18T22:02:16.220Z,6.50
2022-11-18T22:05:01.822Z,6.50
2022-11-18T22:07:32.259Z,6.30
2022-11-18T22:10:03.449Z,7.40
2022-11-18T22:12:32.675Z,6.50
2022-11-18T22:15:04.580Z,6.50
2022-11-18T22:17:34.777Z,7.80
2022-11-18T22:20:03.548Z,6.90
2022-11-18T22:22:31.927Z,6.30
2022-11-18T22:25:03.367Z,6.30
2022-11-18T22:27:31.998Z,6.30
2022-11-18T22:30:02.307Z,6.30
2022-11-18T22:32:30.621Z,6.70
2022-11-18T22:35:02.236Z,6.30
2022-11-18T22:37:30.620Z,6.30
2022-11-18T22:40:00.784Z,6.70
2022-11-18T22:42:49.022Z,7.60
2022-11-18T22:45:23.338Z,6.30
2022-11-18T22:47:52.843Z,6.90
2022-11-18T22:50:21.462Z,6.20
2022-11-18T22:52:50.007Z,6.20
2022-11-18T22:55:18.261Z,7.10
2022-11-18T22:57:51.279Z,6.20
2022-11-18T23:00:21.295Z,6.20
2022-11-18T23:02:50.403Z,6.20
2022-11-18T23:05:18.722Z,6.10
2022-11-18T23:07:47.851Z,6.10
2022-11-18T23:10:16.966Z,6.00
2022-11-18T23:13:03.043Z,5.80
2022-11-18T23:15:34.190Z,6.10
2022-11-18T23:18:04.334Z,5.90
2022-11-18T23:20:34.568Z,5.80
2022-11-18T23:23:02.719Z,5.80
2022-11-18T23:25:31.184Z,5.80
2022-11-18T23:28:00.192Z,5.90
2022-11-18T23:30:28.462Z,6.20
2022-11-18T23:32:58.223Z,6.70
2022-11-18T23:35:26.576Z,6.70
2022-11-18T23:37:54.936Z,5.80
2022-11-18T23:40:24.851Z,6.40
2022-11-18T23:42:53.254Z,6.90
2022-11-18T23:45:21.477Z,5.80
2022-11-18T23:47:51.201Z,5.70
2022-11-18T23:50:20.820Z,5.70
2022-11-18T23:52:49.111Z,6.40
2022-11-18T23:55:17.479Z,5.60
2022-11-18T23:57:47.051Z,7.20
